createdAt,value
2023-02-17T00:04:42.341Z,1.01
2023-02-17T00:09:50.025Z,1.05
2023-02-17T00:14:57.299Z,1.06
2023-02-17T00:19:59.105Z,1.06
2023-02-17T00:25:00.876Z,1.05
2023-02-17T00:30:02.692Z,1.03
2023-02-17T00:35:05.647Z,1.02
2023-02-17T00:40:07.983Z,1.01
2023-02-17T00:45:09.956Z,1.00
2023-02-17T00:50:11.689Z,0.95
2023-02-17T00:55:13.395Z,0.87
2023-02-17T01:00:15.705Z,0.78
2023-02-17T01:05:17.665Z,0.72
2023-02-17T01:10:21.570Z,0.65
2023-02-17T01:15:23.294Z,0.58
2023-02-17T01:20:25.040Z,0.51
2023-02-17T01:25:26.762Z,0.45
2023-02-17T01:30:31.216Z,0.40
2023-02-17T01:35:34.823Z,0.37
2023-02-17T01:40:36.539Z,0.35
2023-02-17T01:45:50.516Z,0.33
2023-02-17T01:51:03.046Z,0.33
2023-02-17T01:56:06.496Z,0.33
2023-02-17T02:01:08.736Z,0.33
2023-02-17T02:06:16.375Z,0.33
2023-02-17T02:11:18.162Z,0.36
2023-02-17T02:16:29.567Z,0.43
2023-02-17T02:21:46.677Z,0.52
2023-02-17T02:27:24.294Z,0.65
2023-02-17T02:32:55.165Z,0.78
2023-02-17T02:38:06.857Z,0.91
2023-02-17T02:43:10.000Z,1.03
2023-02-17T02:48:12.113Z,1.11
2023-02-17T02:53:36.032Z,1.15
2023-02-17T02:59:16.252Z,1.17
2023-02-17T03:04:37.027Z,1.21
2023-02-17T03:09:40.756Z,1.24
2023-02-17T03:14:43.626Z,1.24
2023-02-17T03:19:47.633Z,1.26
2023-02-17T03:24:50.757Z,1.32
2023-02-17T03:29:53.146Z,1.40
2023-02-17T03:34:55.096Z,1.51
2023-02-17T03:39:59.108Z,1.62
2023-02-17T03:45:00.775Z,1.72
2023-02-17T03:50:02.335Z,1.81
2023-02-17T03:55:04.193Z,1.89
2023-02-17T04:00:08.061Z,1.96
2023-02-17T04:05:14.720Z,2.01
2023-02-17T04:10:17.009Z,2.09
2023-02-17T04:15:18.823Z,2.16
2023-02-17T04:20:20.613Z,2.23
2023-02-17T04:25:23.474Z,2.31
2023-02-17T04:30:32.365Z,2.38
2023-02-17T04:35:34.030Z,2.45
2023-02-17T04:40:36.001Z,2.51
2023-02-17T04:45:38.422Z,2.55
2023-02-17T04:50:40.381Z,2.60
2023-02-17T04:55:42.922Z,2.66
2023-02-17T05:00:47.215Z,2.71
2023-02-17T05:05:49.616Z,2.75
2023-02-17T05:10:52.556Z,2.76
2023-02-17T05:15:54.330Z,2.77
2023-02-17T05:20:55.964Z,2.79
2023-02-17T05:25:57.601Z,2.83
2023-02-17T05:31:00.733Z,2.86
2023-02-17T05:36:05.772Z,2.88
2023-02-17T05:41:08.334Z,2.90
2023-02-17T05:46:10.411Z,2.91
2023-02-17T05:51:13.874Z,2.94
2023-02-17T05:56:15.603Z,3.00
2023-02-17T06:01:17.319Z,3.04
2023-02-17T06:06:19.467Z,3.09
2023-02-17T06:11:21.383Z,3.16
2023-02-17T06:16:23.510Z,3.24
2023-02-17T06:21:25.470Z,3.33
2023-02-17T06:26:27.210Z,3.45
2023-02-17T06:31:29.143Z,3.61
2023-02-17T06:36:30.939Z,3.78
2023-02-17T06:41:32.611Z,3.93
2023-02-17T06:46:34.468Z,4.08
2023-02-17T06:51:44.335Z,4.24
2023-02-17T06:56:46.220Z,4.33
2023-02-17T07:01:49.838Z,4.43
2023-02-17T07:06:51.795Z,4.53
2023-02-17T07:11:53.517Z,4.66
2023-02-17T07:16:55.283Z,4.82
2023-02-17T07:21:57.114Z,5.04
2023-02-17T07:26:58.936Z,5.24
2023-02-17T07:32:00.690Z,5.37
2023-02-17T07:37:02.452Z,5.44
2023-02-17T07:42:05.200Z,5.52
2023-02-17T07:47:07.842Z,5.61
2023-02-17T07:52:09.632Z,5.67
2023-02-17T07:57:11.373Z,5.69
2023-02-17T08:02:13.067Z,5.73
2023-02-17T08:07:14.956Z,5.78
2023-02-17T08:12:42.392Z,5.81
2023-02-17T08:17:44.501Z,5.82
2023-02-17T08:22:46.208Z,5.82
2023-02-17T08:27:47.959Z,5.82
2023-02-17T08:32:49.684Z,5.82
2023-02-17T08:37:51.905Z,5.88
2023-02-17T08:42:53.649Z,5.96
2023-02-17T08:47:55.893Z,6.05
2023-02-17T08:52:58.802Z,6.18
2023-02-17T08:58:00.721Z,6.28
2023-02-17T09:03:02.446Z,6.38
2023-02-17T09:08:04.306Z,6.49
2023-02-17T09:13:06.060Z,6.50
2023-02-17T09:18:07.777Z,6.52
2023-02-17T09:23:09.533Z,6.49
2023-02-17T09:28:13.905Z,6.44
2023-02-17T09:33:15.610Z,6.39
2023-02-17T09:38:17.356Z,6.32
2023-02-17T09:43:25.116Z,6.29
2023-02-17T09:48:31.252Z,6.30
2023-02-17T09:54:01.028Z,6.35
2023-02-17T09:59:11.773Z,6.39
2023-02-17T10:04:21.244Z,6.40
2023-02-17T10:09:34.549Z,6.48
2023-02-17T10:14:51.902Z,6.60
2023-02-17T10:20:02.809Z,6.55
2023-02-17T10:25:16.500Z,6.52
2023-02-17T10:30:49.696Z,6.58
2023-02-17T10:35:54.343Z,6.70
2023-02-17T10:40:56.511Z,6.85
2023-02-17T10:46:02.424Z,7.02
2023-02-17T10:51:04.725Z,7.27
2023-02-17T10:56:17.428Z,7.40
2023-02-17T11:01:19.817Z,7.36
2023-02-17T11:06:22.591Z,7.47
2023-02-17T11:11:28.127Z,7.72
2023-02-17T11:16:39.760Z,7.99
2023-02-17T11:21:43.545Z,8.03
2023-02-17T11:27:05.195Z,7.90
2023-02-17T11:32:12.536Z,7.77
2023-02-17T11:37:14.463Z,7.71
2023-02-17T11:42:24.129Z,7.68
2023-02-17T11:47:43.226Z,7.58
2023-02-17T11:53:08.037Z,7.57
2023-02-17T11:58:27.975Z,7.56
2023-02-17T12:04:07.878Z,7.55
2023-02-17T12:09:35.169Z,7.53
2023-02-17T12:14:51.919Z,7.52
2023-02-17T12:20:09.143Z,7.44
2023-02-17T12:25:27.096Z,7.38
2023-02-17T12:30:46.221Z,7.36
2023-02-17T12:36:10.365Z,7.34
2023-02-17T12:41:22.668Z,7.37
2023-02-17T12:46:29.729Z,7.42
2023-02-17T12:52:10.889Z,7.42
2023-02-17T12:57:22.643Z,7.45
2023-02-17T13:02:26.366Z,7.52
2023-02-17T13:07:47.427Z,7.54
2023-02-17T13:13:05.213Z,7.63
2023-02-17T13:18:13.230Z,7.80
2023-02-17T13:23:30.634Z,7.93
2023-02-17T13:28:38.430Z,7.99
2023-02-17T13:33:49.286Z,7.99
2023-02-17T13:39:04.127Z,8.00
2023-02-17T13:44:38.538Z,7.98
2023-02-17T13:49:40.393Z,7.97
2023-02-17T13:54:51.945Z,7.96
2023-02-17T14:00:04.322Z,7.91
2023-02-17T14:05:20.034Z,7.89
2023-02-17T14:10:25.232Z,7.88
2023-02-17T14:15:29.405Z,7.89
2023-02-17T14:20:36.518Z,7.90
2023-02-17T14:25:47.070Z,7.85
2023-02-17T14:30:49.537Z,7.78
2023-02-17T14:36:04.264Z,7.66
2023-02-17T14:41:09.268Z,7.56
2023-02-17T14:46:11.139Z,7.44
2023-02-17T14:51:16.142Z,7.37
2023-02-17T14:56:38.375Z,7.29
2023-02-17T15:01:40.197Z,7.23
2023-02-17T15:06:49.290Z,7.21
2023-02-17T15:11:51.818Z,7.19
2023-02-17T15:16:53.511Z,7.19
2023-02-17T15:21:57.131Z,7.18
2023-02-17T15:27:00.104Z,7.20
2023-02-17T15:32:04.949Z,7.22
2023-02-17T15:37:07.060Z,7.23
2023-02-17T15:42:19.207Z,7.25
2023-02-17T15:47:21.502Z,7.29
2023-02-17T15:52:23.191Z,7.31
2023-02-17T15:57:25.439Z,7.36
2023-02-17T16:02:27.497Z,7.36
2023-02-17T16:07:29.211Z,7.37
2023-02-17T16:12:31.622Z,7.37
2023-02-17T16:17:33.426Z,7.38
2023-02-17T16:22:35.197Z,7.39
2023-02-17T16:27:37.787Z,7.43
2023-02-17T16:32:39.513Z,7.49
2023-02-17T16:37:41.986Z,7.53
2023-02-17T16:42:43.866Z,7.58
2023-02-17T16:47:49.237Z,7.61
2023-02-17T16:52:52.891Z,7.65
2023-02-17T16:57:55.357Z,7.68
2023-02-17T17:02:58.758Z,7.72
2023-02-17T17:08:00.518Z,7.77
2023-02-17T17:13:02.247Z,7.82
2023-02-17T17:18:09.181Z,7.87
2023-02-17T17:23:14.862Z,7.91
2023-02-17T17:28:19.228Z,7.93
2023-02-17T17:33:20.869Z,7.94
2023-02-17T17:38:22.563Z,7.97
2023-02-17T17:43:27.118Z,7.98
2023-02-17T17:48:29.045Z,8.00
2023-02-17T17:53:30.840Z,7.95
2023-02-17T17:58:34.226Z,7.87
2023-02-17T18:03:36.535Z,7.76
2023-02-17T18:08:39.418Z,7.68
2023-02-17T18:13:43.972Z,7.62
2023-02-17T18:18:47.107Z,7.62
2023-02-17T18:23:52.235Z,7.66
2023-02-17T18:28:54.921Z,7.73
2023-02-17T18:33:59.989Z,7.82
2023-02-17T18:39:05.869Z,7.89
2023-02-17T18:44:08.235Z,7.95
2023-02-17T18:49:10.980Z,8.01
2023-02-17T18:54:15.256Z,8.09
2023-02-17T18:59:16.968Z,8.16
2023-02-17T19:04:18.588Z,8.25
2023-02-17T19:09:20.303Z,8.31
2023-02-17T19:14:22.082Z,8.35
2023-02-17T19:19:23.860Z,8.42
2023-02-17T19:24:25.806Z,8.49
2023-02-17T19:29:27.809Z,8.52
2023-02-17T19:34:31.625Z,8.54
2023-02-17T19:39:45.484Z,8.59
2023-02-17T19:44:48.487Z,8.65
2023-02-17T19:49:50.242Z,8.73
2023-02-17T19:55:01.169Z,8.78
2023-02-17T20:00:04.404Z,8.84
2023-02-17T20:05:08.816Z,8.90
2023-02-17T20:10:12.464Z,9.01
2023-02-17T20:15:14.677Z,9.09
2023-02-17T20:20:16.492Z,9.15
2023-02-17T20:25:18.457Z,9.20
2023-02-17T20:30:20.423Z,9.25
2023-02-17T20:35:22.221Z,9.30
2023-02-17T20:40:23.852Z,9.34
2023-02-17T20:45:25.991Z,9.38
2023-02-17T20:50:28.457Z,9.41
2023-02-17T20:55:30.522Z,9.44
2023-02-17T21:00:32.449Z,9.44
2023-02-17T21:05:34.679Z,9.43
2023-02-17T21:10:39.729Z,9.44
2023-02-17T21:15:41.364Z,9.46
2023-02-17T21:20:43.133Z,9.49
2023-02-17T21:25:46.240Z,9.55
2023-02-17T21:30:48.189Z,9.59
2023-02-17T21:35:53.068Z,9.59
2023-02-17T21:40:54.782Z,9.60
2023-02-17T21:45:56.513Z,9.64
2023-02-17T21:51:07.590Z,9.66
2023-02-17T21:56:10.172Z,9.70
2023-02-17T22:01:14.925Z,9.72
2023-02-17T22:06:20.126Z,9.73
2023-02-17T22:11:33.573Z,9.76
2023-02-17T22:16:38.654Z,9.78
2023-02-17T22:21:41.076Z,9.78
2023-02-17T22:26:43.346Z,9.76
2023-02-17T22:31:47.960Z,9.70
2023-02-17T22:36:49.841Z,9.61
2023-02-17T22:41:51.695Z,9.55
2023-02-17T22:46:53.328Z,9.48
2023-02-17T22:51:55.081Z,9.40
2023-02-17T22:56:56.857Z,9.32
2023-02-17T23:01:59.212Z,9.26
2023-02-17T23:07:00.890Z,9.21
2023-02-17T23:12:02.829Z,9.17
2023-02-17T23:17:11.388Z,9.16
